sensor_id;sensor_type;location;lat;lon;timestamp;temperature;humidity
6379;DHT22;3222;48.858;10.128;2022-07-12T00:01:54;16.40;99.90
6379;DHT22;3222;48.858;10.128;2022-07-12T00:04:20;16.40;99.90
6379;DHT22;3222;48.858;10.128;2022-07-12T00:06:46;16.30;99.90
6379;DHT22;3222;48.858;10.128;2022-07-12T00:09:11;16.30;99.90
6379;DHT22;3222;48.858;10.128;2022-07-12T00:11:37;16.30;99.90
6379;DHT22;3222;48.858;10.128;2022-07-12T00:14:04;16.20;99.90
6379;DHT22;3222;48.858;10.128;2022-07-12T00:16:30;16.20;99.90
6379;DHT22;3222;48.858;10.128;2022-07-12T00:18:56;16.20;99.90
6379;DHT22;3222;48.858;10.128;2022-07-12T00:21:21;16.10;99.90
6379;DHT22;3222;48.858;10.128;2022-07-12T00:23:47;16.10;99.90
6379;DHT22;3222;48.858;10.128;2022-07-12T00:26:13;16.10;99.90
6379;DHT22;3222;48.858;10.128;2022-07-12T00:28:38;16.20;99.90
6379;DHT22;3222;48.858;10.128;2022-07-12T00:31:04;16.20;99.90
6379;DHT22;3222;48.858;10.128;2022-07-12T00:33:30;16.20;99.90
6379;DHT22;3222;48.858;10.128;2022-07-12T00:35:56;16.30;99.90
6379;DHT22;3222;48.858;10.128;2022-07-12T00:38:22;16.30;99.90
6379;DHT22;3222;48.858;10.128;2022-07-12T00:40:48;16.30;99.90
6379;DHT22;3222;48.858;10.128;2022-07-12T00:43:15;16.20;99.90
6379;DHT22;3222;48.858;10.128;2022-07-12T00:45:41;16.20;99.90
6379;DHT22;3222;48.858;10.128;2022-07-12T00:48:07;16.20;99.90
6379;DHT22;3222;48.858;10.128;2022-07-12T00:50:33;16.20;99.90
6379;DHT22;3222;48.858;10.128;2022-07-12T00:52:59;16.20;99.90
6379;DHT22;3222;48.858;10.128;2022-07-12T00:55:25;16.10;99.90
6379;DHT22;3222;48.858;10.128;2022-07-12T00:57:51;16.10;99.90
6379;DHT22;3222;48.858;10.128;2022-07-12T01:00:22;16.10;99.90
6379;DHT22;3222;48.858;10.128;2022-07-12T01:02:50;16.10;99.90
6379;DHT22;3222;48.858;10.128;2022-07-12T01:05:16;16.10;99.90
6379;DHT22;3222;48.858;10.128;2022-07-12T01:07:43;16.10;99.90
6379;DHT22;3222;48.858;10.128;2022-07-12T01:10:09;16.00;99.90
6379;DHT22;3222;48.858;10.128;2022-07-12T01:12:36;16.00;99.90
6379;DHT22;3222;48.858;10.128;2022-07-12T01:15:03;16.00;99.90
6379;DHT22;3222;48.858;10.128;2022-07-12T01:17:30;15.90;99.90
6379;DHT22;3222;48.858;10.128;2022-07-12T01:19:57;15.80;99.90
6379;DHT22;3222;48.858;10.128;2022-07-12T01:22:31;15.70;99.90
6379;DHT22;3222;48.858;10.128;2022-07-12T01:24:59;15.70;99.90
6379;DHT22;3222;48.858;10.128;2022-07-12T01:27:26;15.60;99.90
6379;DHT22;3222;48.858;10.128;2022-07-12T01:29:52;15.70;99.90
6379;DHT22;3222;48.858;10.128;2022-07-12T01:32:18;15.60;99.90
6379;DHT22;3222;48.858;10.128;2022-07-12T01:37:21;15.70;99.90
6379;DHT22;3222;48.858;10.128;2022-07-12T01:39:49;15.70;99.90
6379;DHT22;3222;48.858;10.128;2022-07-12T01:42:15;15.50;99.90
6379;DHT22;3222;48.858;10.128;2022-07-12T01:44:41;15.50;99.90
6379;DHT22;3222;48.858;10.128;2022-07-12T01:47:07;15.60;99.90
6379;DHT22;3222;48.858;10.128;2022-07-12T01:49:32;15.50;99.90
6379;DHT22;3222;48.858;10.128;2022-07-12T01:51:59;15.50;99.90
6379;DHT22;3222;48.858;10.128;2022-07-12T01:54:25;15.50;99.90
6379;DHT22;3222;48.858;10.128;2022-07-12T01:56:54;15.50;99.90
6379;DHT22;3222;48.858;10.128;2022-07-12T01:59:21;15.60;99.90
6379;DHT22;3222;48.858;10.128;2022-07-12T02:01:47;15.70;99.90
6379;DHT22;3222;48.858;10.128;2022-07-12T02:04:17;15.70;99.90
6379;DHT22;3222;48.858;10.128;2022-07-12T02:06:44;15.80;99.90
6379;DHT22;3222;48.858;10.128;2022-07-12T02:09:11;15.90;99.90
6379;DHT22;3222;48.858;10.128;2022-07-12T02:11:36;15.90;99.90
6379;DHT22;3222;48.858;10.128;2022-07-12T02:14:02;16.00;99.90
6379;DHT22;3222;48.858;10.128;2022-07-12T02:16:28;15.90;99.90
6379;DHT22;3222;48.858;10.128;2022-07-12T02:18:55;15.90;99.90
6379;DHT22;3222;48.858;10.128;2022-07-12T02:21:21;15.90;99.90
6379;DHT22;3222;48.858;10.128;2022-07-12T02:23:46;15.80;99.90
6379;DHT22;3222;48.858;10.128;2022-07-12T02:26:12;15.80;99.90
6379;DHT22;3222;48.858;10.128;2022-07-12T02:28:38;15.80;99.90
6379;DHT22;3222;48.858;10.128;2022-07-12T02:31:03;15.80;99.90
6379;DHT22;3222;48.858;10.128;2022-07-12T02:33:29;15.80;99.90
6379;DHT22;3222;48.858;10.128;2022-07-12T02:35:55;15.80;99.90
6379;DHT22;3222;48.858;10.128;2022-07-12T02:38:20;15.80;99.90
6379;DHT22;3222;48.858;10.128;2022-07-12T02:40:47;15.80;99.90
6379;DHT22;3222;48.858;10.128;2022-07-12T02:43:22;15.70;99.90
6379;DHT22;3222;48.858;10.128;2022-07-12T02:45:49;15.70;99.90
6379;DHT22;3222;48.858;10.128;2022-07-12T02:48:15;15.70;99.90
6379;DHT22;3222;48.858;10.128;2022-07-12T02:50:41;15.70;99.90
6379;DHT22;3222;48.858;10.128;2022-07-12T02:53:07;15.70;99.90
6379;DHT22;3222;48.858;10.128;2022-07-12T02:55:33;15.70;99.90
6379;DHT22;3222;48.858;10.128;2022-07-12T02:57:59;15.60;99.90
6379;DHT22;3222;48.858;10.128;2022-07-12T03:00:26;15.60;99.90
6379;DHT22;3222;48.858;10.128;2022-07-12T03:02:51;15.60;99.90
6379;DHT22;3222;48.858;10.128;2022-07-12T03:05:17;15.50;99.90
6379;DHT22;3222;48.858;10.128;2022-07-12T03:07:43;15.40;99.90
6379;DHT22;3222;48.858;10.128;2022-07-12T03:10:09;15.40;99.90
6379;DHT22;3222;48.858;10.128;2022-07-12T03:12:35;15.40;99.90
6379;DHT22;3222;48.858;10.128;2022-07-12T03:15:00;15.40;99.90
6379;DHT22;3222;48.858;10.128;2022-07-12T03:17:26;15.30;99.90
6379;DHT22;3222;48.858;10.128;2022-07-12T03:19:52;15.30;99.90
6379;DHT22;3222;48.858;10.128;2022-07-12T03:22:18;15.30;99.90
6379;DHT22;3222;48.858;10.128;2022-07-12T03:24:43;15.20;99.90
6379;DHT22;3222;48.858;10.128;2022-07-12T03:27:09;15.30;99.90
6379;DHT22;3222;48.858;10.128;2022-07-12T03:29:36;15.20;99.90
6379;DHT22;3222;48.858;10.128;2022-07-12T03:32:02;15.20;99.90
6379;DHT22;3222;48.858;10.128;2022-07-12T03:34:28;15.00;99.90
6379;DHT22;3222;48.858;10.128;2022-07-12T03:36:53;15.00;99.90
6379;DHT22;3222;48.858;10.128;2022-07-12T03:39:19;15.00;99.90
6379;DHT22;3222;48.858;10.128;2022-07-12T03:41:45;14.90;99.90
6379;DHT22;3222;48.858;10.128;2022-07-12T03:44:10;14.80;99.90
6379;DHT22;3222;48.858;10.128;2022-07-12T03:46:36;14.80;99.90
6379;DHT22;3222;48.858;10.128;2022-07-12T03:49:02;14.80;99.90
6379;DHT22;3222;48.858;10.128;2022-07-12T03:51:27;14.90;99.90
6379;DHT22;3222;48.858;10.128;2022-07-12T03:53:53;14.90;99.90
6379;DHT22;3222;48.858;10.128;2022-07-12T03:56:19;14.90;99.90
6379;DHT22;3222;48.858;10.128;2022-07-12T03:59:03;14.80;99.90
6379;DHT22;3222;48.858;10.128;2022-07-12T04:01:29;14.90;99.90
6379;DHT22;3222;48.858;10.128;2022-07-12T04:03:55;14.80;99.90
6379;DHT22;3222;48.858;10.128;2022-07-12T04:06:21;14.70;99.90
6379;DHT22;3222;48.858;10.128;2022-07-12T04:08:47;14.70;99.90
6379;DHT22;3222;48.858;10.128;2022-07-12T04:11:13;14.60;99.90
6379;DHT22;3222;48.858;10.128;2022-07-12T04:13:39;14.60;99.90
6379;DHT22;3222;48.858;10.128;2022-07-12T04:16:04;14.50;99.90
6379;DHT22;3222;48.858;10.128;2022-07-12T04:18:31;14.40;99.90
6379;DHT22;3222;48.858;10.128;2022-07-12T04:20:57;14.40;99.90
6379;DHT22;3222;48.858;10.128;2022-07-12T04:23:23;14.40;99.90
6379;DHT22;3222;48.858;10.128;2022-07-12T04:25:48;14.50;99.90
6379;DHT22;3222;48.858;10.128;2022-07-12T04:28:14;14.50;99.90
6379;DHT22;3222;48.858;10.128;2022-07-12T04:30:39;14.60;99.90
6379;DHT22;3222;48.858;10.128;2022-07-12T04:33:08;14.60;99.90
6379;DHT22;3222;48.858;10.128;2022-07-12T04:35:33;14.70;99.90
6379;DHT22;3222;48.858;10.128;2022-07-12T04:38:00;14.60;99.90
6379;DHT22;3222;48.858;10.128;2022-07-12T04:40:25;14.60;99.90
6379;DHT22;3222;48.858;10.128;2022-07-12T04:42:51;14.60;99.90
6379;DHT22;3222;48.858;10.128;2022-07-12T04:45:17;14.60;99.90
6379;DHT22;3222;48.858;10.128;2022-07-12T04:47:42;14.60;99.90
6379;DHT22;3222;48.858;10.128;2022-07-12T04:50:08;14.60;99.90
6379;DHT22;3222;48.858;10.128;2022-07-12T04:52:34;14.60;99.90
6379;DHT22;3222;48.858;10.128;2022-07-12T04:55:01;14.60;99.90
6379;DHT22;3222;48.858;10.128;2022-07-12T04:57:26;14.60;99.90
6379;DHT22;3222;48.858;10.128;2022-07-12T04:59:52;14.60;99.90
6379;DHT22;3222;48.858;10.128;2022-07-12T05:02:18;14.60;99.90
6379;DHT22;3222;48.858;10.128;2022-07-12T05:04:44;14.60;99.90
6379;DHT22;3222;48.858;10.128;2022-07-12T05:07:10;14.60;99.90
6379;DHT22;3222;48.858;10.128;2022-07-12T05:09:36;14.60;99.90
6379;DHT22;3222;48.858;10.128;2022-07-12T05:12:01;14.60;99.90
6379;DHT22;3222;48.858;10.128;2022-07-12T05:14:27;14.70;99.90
6379;DHT22;3222;48.858;10.128;2022-07-12T05:16:53;14.60;99.90
6379;DHT22;3222;48.858;10.128;2022-07-12T05:19:19;14.60;99.90
6379;DHT22;3222;48.858;10.128;2022-07-12T05:21:44;14.60;99.90
6379;DHT22;3222;48.858;10.128;2022-07-12T05:24:10;14.60;99.90
6379;DHT22;3222;48.858;10.128;2022-07-12T05:26:36;14.60;99.90
6379;DHT22;3222;48.858;10.128;2022-07-12T05:29:02;14.70;99.90
6379;DHT22;3222;48.858;10.128;2022-07-12T05:31:27;14.80;99.90
6379;DHT22;3222;48.858;10.128;2022-07-12T05:33:54;14.90;99.90
6379;DHT22;3222;48.858;10.128;2022-07-12T05:36:20;15.00;99.90
6379;DHT22;3222;48.858;10.128;2022-07-12T05:38:45;15.10;99.90
6379;DHT22;3222;48.858;10.128;2022-07-12T05:41:12;15.10;99.90
6379;DHT22;3222;48.858;10.128;2022-07-12T05:43:38;15.10;99.90
6379;DHT22;3222;48.858;10.128;2022-07-12T05:46:04;15.20;99.90
6379;DHT22;3222;48.858;10.128;2022-07-12T05:48:30;15.20;99.90
6379;DHT22;3222;48.858;10.128;2022-07-12T05:50:56;15.30;99.90
6379;DHT22;3222;48.858;10.128;2022-07-12T05:53:41;15.30;99.90
6379;DHT22;3222;48.858;10.128;2022-07-12T05:56:07;15.30;99.90
6379;DHT22;3222;48.858;10.128;2022-07-12T05:58:33;15.40;99.90
6379;DHT22;3222;48.858;10.128;2022-07-12T06:00:58;15.40;99.90
6379;DHT22;3222;48.858;10.128;2022-07-12T06:03:24;15.50;99.90
6379;DHT22;3222;48.858;10.128;2022-07-12T06:05:50;15.60;99.90
6379;DHT22;3222;48.858;10.128;2022-07-12T06:08:16;15.60;99.90
6379;DHT22;3222;48.858;10.128;2022-07-12T06:10:42;15.60;99.90
6379;DHT22;3222;48.858;10.128;2022-07-12T06:13:08;15.60;99.90
6379;DHT22;3222;48.858;10.128;2022-07-12T06:15:35;15.60;99.90
6379;DHT22;3222;48.858;10.128;2022-07-12T06:18:02;15.60;99.90
6379;DHT22;3222;48.858;10.128;2022-07-12T06:20:28;15.60;99.90
6379;DHT22;3222;48.858;10.128;2022-07-12T06:22:54;15.60;99.90
6379;DHT22;3222;48.858;10.128;2022-07-12T06:25:20;15.70;99.90
6379;DHT22;3222;48.858;10.128;2022-07-12T06:27:46;15.80;99.90
6379;DHT22;3222;48.858;10.128;2022-07-12T06:30:18;15.80;99.90
6379;DHT22;3222;48.858;10.128;2022-07-12T06:32:48;16.00;99.90
6379;DHT22;3222;48.858;10.128;2022-07-12T06:35:14;16.00;99.90
6379;DHT22;3222;48.858;10.128;2022-07-12T06:37:41;16.10;99.90
6379;DHT22;3222;48.858;10.128;2022-07-12T06:40:07;16.10;99.90
6379;DHT22;3222;48.858;10.128;2022-07-12T06:42:34;16.10;99.90
6379;DHT22;3222;48.858;10.128;2022-07-12T06:45:00;16.20;99.90
6379;DHT22;3222;48.858;10.128;2022-07-12T06:47:26;16.20;99.90
6379;DHT22;3222;48.858;10.128;2022-07-12T06:49:52;16.30;99.90
6379;DHT22;3222;48.858;10.128;2022-07-12T06:52:18;16.40;99.90
6379;DHT22;3222;48.858;10.128;2022-07-12T06:54:44;16.40;99.90
6379;DHT22;3222;48.858;10.128;2022-07-12T06:57:10;16.50;99.90
6379;DHT22;3222;48.858;10.128;2022-07-12T06:59:36;16.50;99.90
6379;DHT22;3222;48.858;10.128;2022-07-12T07:02:02;16.50;99.90
6379;DHT22;3222;48.858;10.128;2022-07-12T07:04:28;16.60;99.90
6379;DHT22;3222;48.858;10.128;2022-07-12T07:06:54;16.60;99.90
6379;DHT22;3222;48.858;10.128;2022-07-12T07:09:19;16.60;99.90
6379;DHT22;3222;48.858;10.128;2022-07-12T07:11:45;16.70;99.90
6379;DHT22;3222;48.858;10.128;2022-07-12T07:14:11;16.70;99.90
6379;DHT22;3222;48.858;10.128;2022-07-12T07:16:37;16.70;99.90
6379;DHT22;3222;48.858;10.128;2022-07-12T07:19:02;16.60;99.90
6379;DHT22;3222;48.858;10.128;2022-07-12T07:21:29;16.80;99.90
6379;DHT22;3222;48.858;10.128;2022-07-12T07:23:55;16.80;99.90
6379;DHT22;3222;48.858;10.128;2022-07-12T07:26:21;16.80;99.90
6379;DHT22;3222;48.858;10.128;2022-07-12T07:28:47;16.90;99.90
6379;DHT22;3222;48.858;10.128;2022-07-12T07:31:36;16.90;99.90
6379;DHT22;3222;48.858;10.128;2022-07-12T07:34:03;16.90;99.90
6379;DHT22;3222;48.858;10.128;2022-07-12T07:36:28;17.00;99.90
6379;DHT22;3222;48.858;10.128;2022-07-12T07:38:54;17.10;99.90
6379;DHT22;3222;48.858;10.128;2022-07-12T07:41:20;17.10;99.90
6379;DHT22;3222;48.858;10.128;2022-07-12T07:43:46;17.20;99.90
6379;DHT22;3222;48.858;10.128;2022-07-12T07:46:12;17.20;99.90
6379;DHT22;3222;48.858;10.128;2022-07-12T07:48:38;17.10;99.90
6379;DHT22;3222;48.858;10.128;2022-07-12T07:51:04;17.10;99.90
6379;DHT22;3222;48.858;10.128;2022-07-12T07:53:30;17.20;99.90
6379;DHT22;3222;48.858;10.128;2022-07-12T07:55:55;17.20;99.90
6379;DHT22;3222;48.858;10.128;2022-07-12T07:58:21;17.20;99.90
6379;DHT22;3222;48.858;10.128;2022-07-12T08:00:49;17.30;99.90
6379;DHT22;3222;48.858;10.128;2022-07-12T08:03:16;17.30;99.90
6379;DHT22;3222;48.858;10.128;2022-07-12T08:05:41;17.30;99.90
6379;DHT22;3222;48.858;10.128;2022-07-12T08:08:07;17.50;99.90
6379;DHT22;3222;48.858;10.128;2022-07-12T08:10:33;17.40;99.90
6379;DHT22;3222;48.858;10.128;2022-07-12T08:12:59;17.40;99.90
6379;DHT22;3222;48.858;10.128;2022-07-12T08:15:25;17.40;99.90
6379;DHT22;3222;48.858;10.128;2022-07-12T08:17:52;17.40;99.90
6379;DHT22;3222;48.858;10.128;2022-07-12T08:20:18;17.30;99.90
6379;DHT22;3222;48.858;10.128;2022-07-12T08:22:45;17.30;99.90
6379;DHT22;3222;48.858;10.128;2022-07-12T08:25:14;17.30;99.90
6379;DHT22;3222;48.858;10.128;2022-07-12T08:27:40;17.40;99.90
6379;DHT22;3222;48.858;10.128;2022-07-12T08:30:06;17.40;99.90
6379;DHT22;3222;48.858;10.128;2022-07-12T08:32:32;17.50;99.90
6379;DHT22;3222;48.858;10.128;2022-07-12T08:34:58;17.50;99.90
6379;DHT22;3222;48.858;10.128;2022-07-12T08:37:24;17.60;99.90
6379;DHT22;3222;48.858;10.128;2022-07-12T08:39:49;17.60;99.90
6379;DHT22;3222;48.858;10.128;2022-07-12T08:42:17;17.60;99.90
6379;DHT22;3222;48.858;10.128;2022-07-12T08:44:44;17.70;99.90
6379;DHT22;3222;48.858;10.128;2022-07-12T08:47:18;17.70;99.90
6379;DHT22;3222;48.858;10.128;2022-07-12T08:52:40;17.90;99.90
6379;DHT22;3222;48.858;10.128;2022-07-12T08:57:44;18.00;99.90
6379;DHT22;3222;48.858;10.128;2022-07-12T09:00:10;18.00;99.90
6379;DHT22;3222;48.858;10.128;2022-07-12T09:03:03;18.20;99.90
6379;DHT22;3222;48.858;10.128;2022-07-12T09:05:32;18.20;99.90
6379;DHT22;3222;48.858;10.128;2022-07-12T09:10:29;18.30;99.90
6379;DHT22;3222;48.858;10.128;2022-07-12T09:12:55;18.30;99.90
6379;DHT22;3222;48.858;10.128;2022-07-12T09:15:22;18.40;99.90
6379;DHT22;3222;48.858;10.128;2022-07-12T09:20:20;18.40;99.90
6379;DHT22;3222;48.858;10.128;2022-07-12T09:22:54;18.40;99.90
6379;DHT22;3222;48.858;10.128;2022-07-12T09:25:20;18.40;99.90
6379;DHT22;3222;48.858;10.128;2022-07-12T09:27:57;18.40;99.90
6379;DHT22;3222;48.858;10.128;2022-07-12T09:30:27;18.60;99.90
6379;DHT22;3222;48.858;10.128;2022-07-12T09:32:58;18.60;99.90
6379;DHT22;3222;48.858;10.128;2022-07-12T09:38:36;18.70;99.90
6379;DHT22;3222;48.858;10.128;2022-07-12T09:41:06;18.70;99.90
6379;DHT22;3222;48.858;10.128;2022-07-12T09:43:33;18.70;99.90
6379;DHT22;3222;48.858;10.128;2022-07-12T09:45:59;18.70;99.90
6379;DHT22;3222;48.858;10.128;2022-07-12T09:48:27;18.70;99.90
6379;DHT22;3222;48.858;10.128;2022-07-12T09:51:00;18.70;99.90
6379;DHT22;3222;48.858;10.128;2022-07-12T09:53:53;18.80;99.90
6379;DHT22;3222;48.858;10.128;2022-07-12T09:56:21;18.90;99.90
6379;DHT22;3222;48.858;10.128;2022-07-12T09:58:57;18.90;99.90
6379;DHT22;3222;48.858;10.128;2022-07-12T10:01:23;19.10;99.90
6379;DHT22;3222;48.858;10.128;2022-07-12T10:03:51;19.00;99.90
6379;DHT22;3222;48.858;10.128;2022-07-12T10:06:24;18.90;99.90
6379;DHT22;3222;48.858;10.128;2022-07-12T10:08:51;18.90;99.90
6379;DHT22;3222;48.858;10.128;2022-07-12T10:11:18;19.00;99.90
6379;DHT22;3222;48.858;10.128;2022-07-12T10:13:45;19.10;99.90
6379;DHT22;3222;48.858;10.128;2022-07-12T10:16:14;19.20;99.90
6379;DHT22;3222;48.858;10.128;2022-07-12T10:18:40;19.10;99.90
6379;DHT22;3222;48.858;10.128;2022-07-12T10:21:18;19.00;99.90
6379;DHT22;3222;48.858;10.128;2022-07-12T10:23:45;19.10;99.90
6379;DHT22;3222;48.858;10.128;2022-07-12T10:29:02;19.30;99.90
6379;DHT22;3222;48.858;10.128;2022-07-12T10:31:30;19.20;99.90
6379;DHT22;3222;48.858;10.128;2022-07-12T10:34:13;19.20;99.90
6379;DHT22;3222;48.858;10.128;2022-07-12T10:39:22;19.20;99.90
6379;DHT22;3222;48.858;10.128;2022-07-12T10:44:39;19.40;99.90
6379;DHT22;3222;48.858;10.128;2022-07-12T10:47:06;19.60;99.90
6379;DHT22;3222;48.858;10.128;2022-07-12T10:49:33;19.60;99.90
6379;DHT22;3222;48.858;10.128;2022-07-12T10:52:12;19.70;99.90
6379;DHT22;3222;48.858;10.128;2022-07-12T10:54:47;19.60;99.90
6379;DHT22;3222;48.858;10.128;2022-07-12T10:57:40;19.60;99.90
6379;DHT22;3222;48.858;10.128;2022-07-12T11:00:09;19.50;99.90
6379;DHT22;3222;48.858;10.128;2022-07-12T11:02:36;19.60;99.90
6379;DHT22;3222;48.858;10.128;2022-07-12T11:05:03;19.50;99.90
6379;DHT22;3222;48.858;10.128;2022-07-12T11:07:29;19.50;99.90
6379;DHT22;3222;48.858;10.128;2022-07-12T11:09:56;19.50;99.90
6379;DHT22;3222;48.858;10.128;2022-07-12T11:12:31;19.40;99.90
6379;DHT22;3222;48.858;10.128;2022-07-12T11:15:01;19.50;99.90
6379;DHT22;3222;48.858;10.128;2022-07-12T11:17:30;19.60;99.90
6379;DHT22;3222;48.858;10.128;2022-07-12T11:20:12;19.70;99.90
6379;DHT22;3222;48.858;10.128;2022-07-12T11:22:40;19.70;99.90
6379;DHT22;3222;48.858;10.128;2022-07-12T11:25:11;19.90;99.90
6379;DHT22;3222;48.858;10.128;2022-07-12T11:27:38;20.10;99.90
6379;DHT22;3222;48.858;10.128;2022-07-12T11:30:05;20.20;99.90
6379;DHT22;3222;48.858;10.128;2022-07-12T11:32:44;20.20;99.90
6379;DHT22;3222;48.858;10.128;2022-07-12T11:37:52;20.20;99.90
6379;DHT22;3222;48.858;10.128;2022-07-12T11:40:28;20.20;99.90
6379;DHT22;3222;48.858;10.128;2022-07-12T11:42:59;20.30;99.90
6379;DHT22;3222;48.858;10.128;2022-07-12T11:45:29;20.30;99.90
6379;DHT22;3222;48.858;10.128;2022-07-12T11:48:02;20.30;99.90
6379;DHT22;3222;48.858;10.128;2022-07-12T11:50:29;20.40;99.90
6379;DHT22;3222;48.858;10.128;2022-07-12T11:52:55;20.40;99.90
6379;DHT22;3222;48.858;10.128;2022-07-12T11:55:22;20.50;99.90
6379;DHT22;3222;48.858;10.128;2022-07-12T11:57:48;20.50;99.90
6379;DHT22;3222;48.858;10.128;2022-07-12T12:00:22;20.40;99.90
6379;DHT22;3222;48.858;10.128;2022-07-12T12:02:52;20.40;99.90
6379;DHT22;3222;48.858;10.128;2022-07-12T12:05:19;20.50;99.90
6379;DHT22;3222;48.858;10.128;2022-07-12T12:07:45;20.60;99.90
6379;DHT22;3222;48.858;10.128;2022-07-12T12:12:47;20.70;99.90
6379;DHT22;3222;48.858;10.128;2022-07-12T12:15:15;20.70;99.90
6379;DHT22;3222;48.858;10.128;2022-07-12T12:20:21;20.80;99.90
6379;DHT22;3222;48.858;10.128;2022-07-12T12:22:52;20.80;99.90
6379;DHT22;3222;48.858;10.128;2022-07-12T12:25:22;20.70;99.90
6379;DHT22;3222;48.858;10.128;2022-07-12T12:27:53;20.80;99.90
6379;DHT22;3222;48.858;10.128;2022-07-12T12:30:19;20.80;99.90
6379;DHT22;3222;48.858;10.128;2022-07-12T12:35:15;21.10;99.90
6379;DHT22;3222;48.858;10.128;2022-07-12T12:37:52;21.10;99.90
6379;DHT22;3222;48.858;10.128;2022-07-12T12:40:23;21.20;99.90
6379;DHT22;3222;48.858;10.128;2022-07-12T12:42:50;21.10;99.90
6379;DHT22;3222;48.858;10.128;2022-07-12T12:45:25;21.30;99.90
6379;DHT22;3222;48.858;10.128;2022-07-12T12:47:54;21.20;99.90
6379;DHT22;3222;48.858;10.128;2022-07-12T12:50:39;21.30;99.90
6379;DHT22;3222;48.858;10.128;2022-07-12T12:53:14;21.30;99.90
6379;DHT22;3222;48.858;10.128;2022-07-12T12:55:41;21.30;99.90
6379;DHT22;3222;48.858;10.128;2022-07-12T12:58:08;21.30;99.90
6379;DHT22;3222;48.858;10.128;2022-07-12T13:00:38;21.30;99.90
6379;DHT22;3222;48.858;10.128;2022-07-12T13:03:08;21.50;99.90
6379;DHT22;3222;48.858;10.128;2022-07-12T13:05:35;21.50;99.90
6379;DHT22;3222;48.858;10.128;2022-07-12T13:08:02;21.60;99.90
6379;DHT22;3222;48.858;10.128;2022-07-12T13:10:28;21.70;99.90
6379;DHT22;3222;48.858;10.128;2022-07-12T13:12:54;21.80;99.90
6379;DHT22;3222;48.858;10.128;2022-07-12T13:15:21;21.80;99.90
6379;DHT22;3222;48.858;10.128;2022-07-12T13:17:47;21.70;99.90
6379;DHT22;3222;48.858;10.128;2022-07-12T13:20:14;21.60;99.90
6379;DHT22;3222;48.858;10.128;2022-07-12T13:22:41;21.60;99.90
6379;DHT22;3222;48.858;10.128;2022-07-12T13:25:09;21.80;99.90
6379;DHT22;3222;48.858;10.128;2022-07-12T13:27:36;21.90;99.90
6379;DHT22;3222;48.858;10.128;2022-07-12T13:30:02;22.00;99.90
6379;DHT22;3222;48.858;10.128;2022-07-12T13:32:28;22.10;99.90
6379;DHT22;3222;48.858;10.128;2022-07-12T13:34:53;22.20;99.90
6379;DHT22;3222;48.858;10.128;2022-07-12T13:37:19;22.30;99.90
6379;DHT22;3222;48.858;10.128;2022-07-12T13:39:45;22.30;99.90
6379;DHT22;3222;48.858;10.128;2022-07-12T13:42:29;22.20;99.90
6379;DHT22;3222;48.858;10.128;2022-07-12T13:44:55;22.30;99.90
6379;DHT22;3222;48.858;10.128;2022-07-12T13:47:22;22.30;99.90
6379;DHT22;3222;48.858;10.128;2022-07-12T13:49:49;22.30;99.90
6379;DHT22;3222;48.858;10.128;2022-07-12T13:52:15;22.40;99.90
6379;DHT22;3222;48.858;10.128;2022-07-12T13:54:43;22.30;99.90
6379;DHT22;3222;48.858;10.128;2022-07-12T13:57:09;22.30;99.90
6379;DHT22;3222;48.858;10.128;2022-07-12T13:59:36;22.50;99.80
6379;DHT22;3222;48.858;10.128;2022-07-12T14:02:03;22.50;99.90
6379;DHT22;3222;48.858;10.128;2022-07-12T14:04:29;22.60;99.90
6379;DHT22;3222;48.858;10.128;2022-07-12T14:06:56;22.60;99.90
6379;DHT22;3222;48.858;10.128;2022-07-12T14:09:21;22.70;99.90
6379;DHT22;3222;48.858;10.128;2022-07-12T14:11:47;22.70;99.90
6379;DHT22;3222;48.858;10.128;2022-07-12T14:14:13;22.80;99.90
6379;DHT22;3222;48.858;10.128;2022-07-12T14:16:38;22.80;99.90
6379;DHT22;3222;48.858;10.128;2022-07-12T14:19:04;22.80;99.90
6379;DHT22;3222;48.858;10.128;2022-07-12T14:21:30;22.80;98.80
6379;DHT22;3222;48.858;10.128;2022-07-12T14:23:56;22.80;99.80
6379;DHT22;3222;48.858;10.128;2022-07-12T14:26:29;22.80;99.10
6379;DHT22;3222;48.858;10.128;2022-07-12T14:28:55;22.90;99.90
6379;DHT22;3222;48.858;10.128;2022-07-12T14:31:20;23.00;99.30
6379;DHT22;3222;48.858;10.128;2022-07-12T14:33:47;23.00;99.00
6379;DHT22;3222;48.858;10.128;2022-07-12T14:36:12;23.00;99.90
6379;DHT22;3222;48.858;10.128;2022-07-12T14:38:38;23.10;99.60
6379;DHT22;3222;48.858;10.128;2022-07-12T14:41:04;23.10;99.30
6379;DHT22;3222;48.858;10.128;2022-07-12T14:43:29;23.20;98.60
6379;DHT22;3222;48.858;10.128;2022-07-12T14:45:55;23.30;99.50
6379;DHT22;3222;48.858;10.128;2022-07-12T14:48:21;23.30;99.30
6379;DHT22;3222;48.858;10.128;2022-07-12T14:50:47;23.30;98.90
6379;DHT22;3222;48.858;10.128;2022-07-12T14:53:13;23.30;98.20
6379;DHT22;3222;48.858;10.128;2022-07-12T14:55:39;23.40;98.70
6379;DHT22;3222;48.858;10.128;2022-07-12T14:58:06;23.50;98.50
6379;DHT22;3222;48.858;10.128;2022-07-12T15:00:35;23.50;97.60
6379;DHT22;3222;48.858;10.128;2022-07-12T15:03:01;23.50;97.00
6379;DHT22;3222;48.858;10.128;2022-07-12T15:05:27;23.70;97.50
6379;DHT22;3222;48.858;10.128;2022-07-12T15:07:53;23.90;97.50
6379;DHT22;3222;48.858;10.128;2022-07-12T15:10:19;24.00;97.90
6379;DHT22;3222;48.858;10.128;2022-07-12T15:12:45;24.10;96.70
6379;DHT22;3222;48.858;10.128;2022-07-12T15:15:12;24.00;96.80
6379;DHT22;3222;48.858;10.128;2022-07-12T15:17:38;24.10;97.30
6379;DHT22;3222;48.858;10.128;2022-07-12T15:20:03;24.20;96.30
6379;DHT22;3222;48.858;10.128;2022-07-12T15:22:30;24.20;96.60
6379;DHT22;3222;48.858;10.128;2022-07-12T15:24:56;24.20;96.40
6379;DHT22;3222;48.858;10.128;2022-07-12T15:27:21;24.20;96.70
6379;DHT22;3222;48.858;10.128;2022-07-12T15:29:49;24.10;96.10
6379;DHT22;3222;48.858;10.128;2022-07-12T15:32:17;24.10;96.10
6379;DHT22;3222;48.858;10.128;2022-07-12T15:34:43;24.10;96.00
6379;DHT22;3222;48.858;10.128;2022-07-12T15:37:08;24.00;96.10
6379;DHT22;3222;48.858;10.128;2022-07-12T15:39:34;23.90;96.20
6379;DHT22;3222;48.858;10.128;2022-07-12T15:42:00;23.80;96.20
6379;DHT22;3222;48.858;10.128;2022-07-12T15:44:26;23.80;96.10
6379;DHT22;3222;48.858;10.128;2022-07-12T15:46:53;23.70;96.30
6379;DHT22;3222;48.858;10.128;2022-07-12T15:49:19;23.70;96.50
6379;DHT22;3222;48.858;10.128;2022-07-12T15:51:45;23.70;96.40
6379;DHT22;3222;48.858;10.128;2022-07-12T15:54:30;23.80;96.10
6379;DHT22;3222;48.858;10.128;2022-07-12T15:56:56;23.80;95.20
6379;DHT22;3222;48.858;10.128;2022-07-12T15:59:22;23.70;95.00
6379;DHT22;3222;48.858;10.128;2022-07-12T16:01:47;23.60;96.00
6379;DHT22;3222;48.858;10.128;2022-07-12T16:04:13;23.40;95.40
6379;DHT22;3222;48.858;10.128;2022-07-12T16:06:39;23.40;94.90
6379;DHT22;3222;48.858;10.128;2022-07-12T16:09:05;23.30;95.20
6379;DHT22;3222;48.858;10.128;2022-07-12T16:11:31;23.30;94.90
6379;DHT22;3222;48.858;10.128;2022-07-12T16:13:57;23.30;94.50
6379;DHT22;3222;48.858;10.128;2022-07-12T16:16:23;23.20;93.90
6379;DHT22;3222;48.858;10.128;2022-07-12T16:18:49;23.30;94.20
6379;DHT22;3222;48.858;10.128;2022-07-12T16:21:15;23.30;94.30